sensor_id;sensor_type;location;lat;lon;timestamp;pressure;altitude;pressure_sealevel;temperature;humidity
38812;BME280;24553;51.640;-0.752;2023-07-29T00:00:19;99840.66;;;18.94;100.00
38812;BME280;24553;51.640;-0.752;2023-07-29T00:02:44;99839.84;;;18.94;100.00
38812;BME280;24553;51.640;-0.752;2023-07-29T00:05:10;99845.50;;;18.92;100.00
38812;BME280;24553;51.640;-0.752;2023-07-29T00:07:35;99851.31;;;18.79;100.00
38812;BME280;24553;51.640;-0.752;2023-07-29T00:10:00;99858.84;;;18.77;100.00
38812;BME280;24553;51.640;-0.752;2023-07-29T00:12:26;99876.69;;;18.56;100.00
38812;BME280;24553;51.640;-0.752;2023-07-29T00:14:51;99875.00;;;18.50;100.00
38812;BME280;24553;51.640;-0.752;2023-07-29T00:17:16;99881.66;;;18.42;100.00
38812;BME280;24553;51.640;-0.752;2023-07-29T00:19:42;99890.56;;;18.48;100.00
38812;BME280;24553;51.640;-0.752;2023-07-29T00:22:07;99880.63;;;18.43;100.00
38812;BME280;24553;51.640;-0.752;2023-07-29T00:24:33;99882.38;;;18.33;100.00
38812;BME280;24553;51.640;-0.752;2023-07-29T00:26:59;99876.75;;;18.29;100.00
38812;BME280;24553;51.640;-0.752;2023-07-29T00:29:24;99858.47;;;18.26;100.00
38812;BME280;24553;51.640;-0.752;2023-07-29T00:31:49;99853.53;;;18.13;100.00
38812;BME280;24553;51.640;-0.752;2023-07-29T00:34:15;99854.25;;;18.03;100.00
38812;BME280;24553;51.640;-0.752;2023-07-29T00:36:44;99855.63;;;18.05;100.00
38812;BME280;24553;51.640;-0.752;2023-07-29T00:39:09;99847.91;;;18.14;100.00
38812;BME280;24553;51.640;-0.752;2023-07-29T00:41:35;99841.19;;;18.12;100.00
38812;BME280;24553;51.640;-0.752;2023-07-29T00:44:00;99850.31;;;18.11;100.00
38812;BME280;24553;51.640;-0.752;2023-07-29T00:46:28;99847.06;;;18.08;100.00
38812;BME280;24553;51.640;-0.752;2023-07-29T00:48:53;99857.00;;;18.08;100.00
38812;BME280;24553;51.640;-0.752;2023-07-29T00:51:19;99852.22;;;18.15;100.00
38812;BME280;24553;51.640;-0.752;2023-07-29T00:53:44;99851.72;;;18.18;100.00
38812;BME280;24553;51.640;-0.752;2023-07-29T00:56:10;99848.72;;;18.15;100.00
38812;BME280;24553;51.640;-0.752;2023-07-29T00:58:36;99855.41;;;18.12;100.00
38812;BME280;24553;51.640;-0.752;2023-07-29T01:01:01;99856.72;;;18.09;100.00
38812;BME280;24553;51.640;-0.752;2023-07-29T01:03:27;99859.16;;;18.11;100.00
38812;BME280;24553;51.640;-0.752;2023-07-29T01:06:23;99854.88;;;18.10;100.00
38812;BME280;24553;51.640;-0.752;2023-07-29T01:09:02;99861.88;;;18.16;100.00
38812;BME280;24553;51.640;-0.752;2023-07-29T01:14:29;99856.03;;;18.24;100.00
38812;BME280;24553;51.640;-0.752;2023-07-29T01:17:00;99849.78;;;18.14;100.00
38812;BME280;24553;51.640;-0.752;2023-07-29T01:22:08;99851.81;;;18.01;100.00
38812;BME280;24553;51.640;-0.752;2023-07-29T01:24:34;99847.81;;;18.04;100.00
38812;BME280;24553;51.640;-0.752;2023-07-29T01:26:59;99851.03;;;18.01;100.00
38812;BME280;24553;51.640;-0.752;2023-07-29T01:29:27;99855.41;;;18.12;100.00
38812;BME280;24553;51.640;-0.752;2023-07-29T01:31:54;99858.03;;;18.02;100.00
38812;BME280;24553;51.640;-0.752;2023-07-29T01:35:12;99857.59;;;18.15;100.00
38812;BME280;24553;51.640;-0.752;2023-07-29T01:37:41;99847.38;;;18.17;100.00
38812;BME280;24553;51.640;-0.752;2023-07-29T01:40:08;99845.22;;;18.14;100.00
38812;BME280;24553;51.640;-0.752;2023-07-29T01:42:34;99834.81;;;18.18;100.00
38812;BME280;24553;51.640;-0.752;2023-07-29T01:45:00;99832.13;;;18.18;100.00
38812;BME280;24553;51.640;-0.752;2023-07-29T01:47:25;99825.69;;;18.19;100.00
38812;BME280;24553;51.640;-0.752;2023-07-29T01:49:51;99833.72;;;18.19;100.00
38812;BME280;24553;51.640;-0.752;2023-07-29T01:52:16;99831.59;;;18.21;100.00
38812;BME280;24553;51.640;-0.752;2023-07-29T01:54:41;99836.66;;;18.17;100.00
38812;BME280;24553;51.640;-0.752;2023-07-29T01:57:06;99823.25;;;18.17;100.00
38812;BME280;24553;51.640;-0.752;2023-07-29T01:59:32;99825.16;;;18.22;100.00
38812;BME280;24553;51.640;-0.752;2023-07-29T02:01:57;99819.56;;;18.23;100.00
38812;BME280;24553;51.640;-0.752;2023-07-29T02:04:22;99825.16;;;18.22;100.00
38812;BME280;24553;51.640;-0.752;2023-07-29T02:06:48;99820.31;;;18.19;100.00
38812;BME280;24553;51.640;-0.752;2023-07-29T02:09:13;99821.63;;;18.16;100.00
38812;BME280;24553;51.640;-0.752;2023-07-29T02:11:38;99820.00;;;18.10;100.00
38812;BME280;24553;51.640;-0.752;2023-07-29T02:14:04;99823.69;;;18.04;100.00
38812;BME280;24553;51.640;-0.752;2023-07-29T02:16:29;99830.97;;;18.08;100.00
38812;BME280;24553;51.640;-0.752;2023-07-29T02:18:54;99820.78;;;18.11;100.00
38812;BME280;24553;51.640;-0.752;2023-07-29T02:21:20;99813.25;;;18.07;100.00
38812;BME280;24553;51.640;-0.752;2023-07-29T02:23:45;99826.41;;;18.09;100.00
38812;BME280;24553;51.640;-0.752;2023-07-29T02:26:10;99824.19;;;18.01;100.00
38812;BME280;24553;51.640;-0.752;2023-07-29T02:28:36;99820.72;;;18.00;100.00
38812;BME280;24553;51.640;-0.752;2023-07-29T02:33:45;99813.50;;;18.06;100.00
38812;BME280;24553;51.640;-0.752;2023-07-29T02:36:12;99811.63;;;18.06;100.00
38812;BME280;24553;51.640;-0.752;2023-07-29T02:38:37;99808.66;;;18.03;100.00
38812;BME280;24553;51.640;-0.752;2023-07-29T02:41:03;99818.53;;;17.97;100.00
38812;BME280;24553;51.640;-0.752;2023-07-29T02:43:28;99814.03;;;18.03;100.00
38812;BME280;24553;51.640;-0.752;2023-07-29T02:45:53;99809.97;;;18.00;100.00
38812;BME280;24553;51.640;-0.752;2023-07-29T02:48:19;99808.41;;;18.04;100.00
38812;BME280;24553;51.640;-0.752;2023-07-29T02:50:44;99804.69;;;18.11;100.00
38812;BME280;24553;51.640;-0.752;2023-07-29T02:53:09;99807.06;;;18.07;100.00
38812;BME280;24553;51.640;-0.752;2023-07-29T02:55:35;99808.47;;;18.15;100.00
38812;BME280;24553;51.640;-0.752;2023-07-29T02:58:00;99801.78;;;18.17;100.00
38812;BME280;24553;51.640;-0.752;2023-07-29T03:00:25;99804.75;;;18.16;100.00
38812;BME280;24553;51.640;-0.752;2023-07-29T03:02:51;99805.03;;;18.19;100.00
38812;BME280;24553;51.640;-0.752;2023-07-29T03:05:16;99808.22;;;18.16;100.00
38812;BME280;24553;51.640;-0.752;2023-07-29T03:07:41;99807.41;;;18.16;100.00
38812;BME280;24553;51.640;-0.752;2023-07-29T03:10:07;99802.84;;;18.16;100.00
38812;BME280;24553;51.640;-0.752;2023-07-29T03:12:32;99802.56;;;18.13;100.00
38812;BME280;24553;51.640;-0.752;2023-07-29T03:14:58;99804.75;;;18.16;100.00
38812;BME280;24553;51.640;-0.752;2023-07-29T03:17:25;99791.91;;;18.23;100.00
38812;BME280;24553;51.640;-0.752;2023-07-29T03:19:51;99805.53;;;18.16;100.00
38812;BME280;24553;51.640;-0.752;2023-07-29T03:22:17;99802.81;;;18.11;100.00
38812;BME280;24553;51.640;-0.752;2023-07-29T03:24:42;99804.94;;;18.09;100.00
38812;BME280;24553;51.640;-0.752;2023-07-29T03:27:07;99795.25;;;18.03;100.00
38812;BME280;24553;51.640;-0.752;2023-07-29T03:29:35;99796.56;;;18.00;100.00
38812;BME280;24553;51.640;-0.752;2023-07-29T03:32:00;99790.63;;;17.93;100.00
38812;BME280;24553;51.640;-0.752;2023-07-29T03:34:26;99798.31;;;17.84;100.00
38812;BME280;24553;51.640;-0.752;2023-07-29T03:36:51;99799.66;;;17.82;100.00
38812;BME280;24553;51.640;-0.752;2023-07-29T03:39:16;99800.38;;;17.77;100.00
38812;BME280;24553;51.640;-0.752;2023-07-29T03:41:42;99797.94;;;17.76;100.00
38812;BME280;24553;51.640;-0.752;2023-07-29T03:44:07;99793.59;;;17.70;100.00
38812;BME280;24553;51.640;-0.752;2023-07-29T03:46:32;99799.16;;;17.63;100.00
38812;BME280;24553;51.640;-0.752;2023-07-29T03:48:58;99806.72;;;17.66;100.00
38812;BME280;24553;51.640;-0.752;2023-07-29T03:51:23;99800.00;;;17.63;100.00
38812;BME280;24553;51.640;-0.752;2023-07-29T03:53:50;99802.63;;;17.58;100.00
38812;BME280;24553;51.640;-0.752;2023-07-29T03:56:15;99806.72;;;17.66;100.00
38812;BME280;24553;51.640;-0.752;2023-07-29T03:58:41;99813.16;;;17.70;100.00
38812;BME280;24553;51.640;-0.752;2023-07-29T04:01:06;99808.03;;;17.63;100.00
38812;BME280;24553;51.640;-0.752;2023-07-29T04:03:33;99812.56;;;17.63;100.00
38812;BME280;24553;51.640;-0.752;2023-07-29T04:05:59;99817.91;;;17.63;100.00
38812;BME280;24553;51.640;-0.752;2023-07-29T04:08:24;99818.25;;;17.66;100.00
38812;BME280;24553;51.640;-0.752;2023-07-29T04:10:50;99809.63;;;17.64;100.00
38812;BME280;24553;51.640;-0.752;2023-07-29T04:13:15;99812.56;;;17.63;100.00
38812;BME280;24553;51.640;-0.752;2023-07-29T04:15:41;99802.63;;;17.58;100.00
38812;BME280;24553;51.640;-0.752;2023-07-29T04:18:06;99802.88;;;17.57;100.00
38812;BME280;24553;51.640;-0.752;2023-07-29T04:20:31;99809.31;;;17.56;100.00
38812;BME280;24553;51.640;-0.752;2023-07-29T04:22:58;99806.63;;;17.56;100.00
38812;BME280;24553;51.640;-0.752;2023-07-29T04:25:24;99806.63;;;17.56;100.00
38812;BME280;24553;51.640;-0.752;2023-07-29T04:27:49;99812.97;;;17.50;100.00
38812;BME280;24553;51.640;-0.752;2023-07-29T04:30:15;99807.31;;;17.46;100.00
38812;BME280;24553;51.640;-0.752;2023-07-29T04:32:40;99802.19;;;17.44;100.00
38812;BME280;24553;51.640;-0.752;2023-07-29T04:35:10;99815.66;;;17.50;100.00
38812;BME280;24553;51.640;-0.752;2023-07-29T04:37:35;99826.59;;;17.43;100.00
38812;BME280;24553;51.640;-0.752;2023-07-29T04:40:01;99822.78;;;17.39;100.00
38812;BME280;24553;51.640;-0.752;2023-07-29T04:42:26;99818.56;;;17.43;100.00
38812;BME280;24553;51.640;-0.752;2023-07-29T04:44:52;99814.78;;;17.44;100.00
38812;BME280;24553;51.640;-0.752;2023-07-29T04:47:17;99803.28;;;17.43;100.00
38812;BME280;24553;51.640;-0.752;2023-07-29T04:49:42;99815.59;;;17.44;100.00
38812;BME280;24553;51.640;-0.752;2023-07-29T04:52:08;99819.34;;;17.43;100.00
38812;BME280;24553;51.640;-0.752;2023-07-29T04:54:33;99828.25;;;17.49;100.00
38812;BME280;24553;51.640;-0.752;2023-07-29T04:56:58;99818.16;;;17.56;100.00
38812;BME280;24553;51.640;-0.752;2023-07-29T04:59:24;99817.91;;;17.63;100.00
38812;BME280;24553;51.640;-0.752;2023-07-29T05:01:49;99824.75;;;17.76;100.00
38812;BME280;24553;51.640;-0.752;2023-07-29T05:04:15;99815.66;;;17.77;100.00
38812;BME280;24553;51.640;-0.752;2023-07-29T05:06:40;99817.06;;;17.79;100.00
38812;BME280;24553;51.640;-0.752;2023-07-29T05:09:13;99811.47;;;17.86;100.00
38812;BME280;24553;51.640;-0.752;2023-07-29T05:11:38;99801.06;;;17.90;100.00
38812;BME280;24553;51.640;-0.752;2023-07-29T05:14:04;99795.16;;;17.93;100.00
38812;BME280;24553;51.640;-0.752;2023-07-29T05:16:31;99798.97;;;17.97;100.00
38812;BME280;24553;51.640;-0.752;2023-07-29T05:18:56;99799.41;;;17.88;100.00
38812;BME280;24553;51.640;-0.752;2023-07-29T05:21:22;99798.63;;;17.88;100.00
38812;BME280;24553;51.640;-0.752;2023-07-29T05:23:47;99805.28;;;17.85;100.00
38812;BME280;24553;51.640;-0.752;2023-07-29T05:26:12;99811.47;;;17.86;100.00
38812;BME280;24553;51.640;-0.752;2023-07-29T05:28:38;99815.78;;;17.87;100.00
38812;BME280;24553;51.640;-0.752;2023-07-29T05:31:03;99823.81;;;17.87;100.00
38812;BME280;24553;51.640;-0.752;2023-07-29T05:33:28;99818.69;;;17.85;100.00
38812;BME280;24553;51.640;-0.752;2023-07-29T05:35:54;99823.03;;;17.86;100.00
38812;BME280;24553;51.640;-0.752;2023-07-29T05:38:20;99824.38;;;17.89;100.00
38812;BME280;24553;51.640;-0.752;2023-07-29T05:40:45;99830.59;;;17.95;100.00
38812;BME280;24553;51.640;-0.752;2023-07-29T05:43:12;99821.44;;;17.91;100.00
38812;BME280;24553;51.640;-0.752;2023-07-29T05:45:39;99827.59;;;17.91;100.00
38812;BME280;24553;51.640;-0.752;2023-07-29T05:48:04;99821.75;;;17.94;100.00
38812;BME280;24553;51.640;-0.752;2023-07-29T05:50:30;99814.41;;;17.84;100.00
38812;BME280;24553;51.640;-0.752;2023-07-29T05:52:55;99816.38;;;17.94;100.00
38812;BME280;24553;51.640;-0.752;2023-07-29T05:55:20;99823.41;;;18.00;100.00
38812;BME280;24553;51.640;-0.752;2023-07-29T05:57:46;99818.03;;;18.00;100.00
38812;BME280;24553;51.640;-0.752;2023-07-29T06:00:11;99814.84;;;18.03;100.00
38812;BME280;24553;51.640;-0.752;2023-07-29T06:02:37;99810.31;;;18.09;100.00
38812;BME280;24553;51.640;-0.752;2023-07-29T06:05:02;99813.63;;;18.21;100.00
38812;BME280;24553;51.640;-0.752;2023-07-29T06:07:29;99814.81;;;18.36;100.00
38812;BME280;24553;51.640;-0.752;2023-07-29T06:09:55;99813.50;;;18.38;100.00
38812;BME280;24553;51.640;-0.752;2023-07-29T06:12:21;99804.66;;;18.48;100.00
38812;BME280;24553;51.640;-0.752;2023-07-29T06:14:46;99812.16;;;18.41;100.00
38812;BME280;24553;51.640;-0.752;2023-07-29T06:17:11;99810.94;;;18.59;100.00
38812;BME280;24553;51.640;-0.752;2023-07-29T06:19:37;99815.25;;;18.65;100.00
38812;BME280;24553;51.640;-0.752;2023-07-29T06:22:03;99819.53;;;18.66;100.00
38812;BME280;24553;51.640;-0.752;2023-07-29T06:24:29;99818.81;;;18.76;100.00
38812;BME280;24553;51.640;-0.752;2023-07-29T06:26:54;99812.91;;;18.79;100.00
38812;BME280;24553;51.640;-0.752;2023-07-29T06:29:20;99802.97;;;18.79;100.00
38812;BME280;24553;51.640;-0.752;2023-07-29T06:31:45;99803.84;;;18.90;100.00
38812;BME280;24553;51.640;-0.752;2023-07-29T06:34:10;99804.66;;;18.90;100.00
38812;BME280;24553;51.640;-0.752;2023-07-29T06:36:36;99809.53;;;18.99;100.00
38812;BME280;24553;51.640;-0.752;2023-07-29T06:39:01;99806.03;;;18.98;100.00
38812;BME280;24553;51.640;-0.752;2023-07-29T06:41:26;99808.41;;;18.94;100.00
38812;BME280;24553;51.640;-0.752;2023-07-29T06:43:52;99807.09;;;18.97;100.00
38812;BME280;24553;51.640;-0.752;2023-07-29T06:46:17;99809.31;;;19.10;100.00
38812;BME280;24553;51.640;-0.752;2023-07-29T06:48:42;99811.19;;;19.15;100.00
38812;BME280;24553;51.640;-0.752;2023-07-29T06:51:07;99805.56;;;19.22;100.00
38812;BME280;24553;51.640;-0.752;2023-07-29T06:53:33;99806.41;;;19.37;100.00
38812;BME280;24553;51.640;-0.752;2023-07-29T06:55:58;99803.47;;;19.34;100.00
38812;BME280;24553;51.640;-0.752;2023-07-29T06:58:24;99810.16;;;19.31;100.00
38812;BME280;24553;51.640;-0.752;2023-07-29T07:00:50;99810.69;;;19.18;100.00
38812;BME280;24553;51.640;-0.752;2023-07-29T07:03:15;99815.75;;;19.14;100.00
38812;BME280;24553;51.640;-0.752;2023-07-29T07:05:41;99812.28;;;19.19;100.00
38812;BME280;24553;51.640;-0.752;2023-07-29T07:08:06;99813.13;;;19.30;100.00
38812;BME280;24553;51.640;-0.752;2023-07-29T07:10:31;99822.31;;;19.44;100.00
38812;BME280;24553;51.640;-0.752;2023-07-29T07:12:59;99808.59;;;19.51;100.00
38812;BME280;24553;51.640;-0.752;2023-07-29T07:15:24;99804.34;;;19.70;100.00
38812;BME280;24553;51.640;-0.752;2023-07-29T07:17:51;99808.66;;;19.81;100.00
38812;BME280;24553;51.640;-0.752;2023-07-29T07:20:16;99801.38;;;19.87;100.00
38812;BME280;24553;51.640;-0.752;2023-07-29T07:22:42;99798.97;;;19.86;100.00
38812;BME280;24553;51.640;-0.752;2023-07-29T07:25:07;99799.25;;;19.89;100.00
38812;BME280;24553;51.640;-0.752;2023-07-29T07:27:33;99788.47;;;19.79;100.00
38812;BME280;24553;51.640;-0.752;2023-07-29T07:29:58;99787.38;;;19.90;100.00
38812;BME280;24553;51.640;-0.752;2023-07-29T07:32:24;99796.28;;;20.01;100.00
38812;BME280;24553;51.640;-0.752;2023-07-29T07:34:49;99787.13;;;20.02;100.00
38812;BME280;24553;51.640;-0.752;2023-07-29T07:37:15;99805.16;;;20.07;100.00
38812;BME280;24553;51.640;-0.752;2023-07-29T07:39:40;99797.91;;;20.02;100.00
38812;BME280;24553;51.640;-0.752;2023-07-29T07:42:06;99791.97;;;19.95;100.00
38812;BME280;24553;51.640;-0.752;2023-07-29T07:44:31;99794.13;;;20.03;100.00
38812;BME280;24553;51.640;-0.752;2023-07-29T07:46:57;99786.56;;;20.20;100.00
38812;BME280;24553;51.640;-0.752;2023-07-29T07:49:22;99802.69;;;20.36;100.00
38812;BME280;24553;51.640;-0.752;2023-07-29T07:51:48;99796.00;;;20.13;100.00
38812;BME280;24553;51.640;-0.752;2023-07-29T07:54:13;99789.78;;;20.38;100.00
38812;BME280;24553;51.640;-0.752;2023-07-29T07:56:38;99794.00;;;20.80;100.00
38812;BME280;24553;51.640;-0.752;2023-07-29T07:59:03;99790.94;;;21.02;100.00
38812;BME280;24553;51.640;-0.752;2023-07-29T08:01:35;99788.22;;;21.07;100.00
38812;BME280;24553;51.640;-0.752;2023-07-29T08:04:01;99778.13;;;20.78;100.00
38812;BME280;24553;51.640;-0.752;2023-07-29T08:06:26;99776.88;;;21.10;100.00
38812;BME280;24553;51.640;-0.752;2023-07-29T08:08:51;99780.28;;;21.26;100.00
38812;BME280;24553;51.640;-0.752;2023-07-29T08:11:16;99776.38;;;21.52;100.00
38812;BME280;24553;51.640;-0.752;2023-07-29T08:13:42;99775.03;;;21.89;100.00
38812;BME280;24553;51.640;-0.752;2023-07-29T08:16:07;99777.72;;;21.89;100.00
38812;BME280;24553;51.640;-0.752;2023-07-29T08:18:32;99773.66;;;21.52;100.00
38812;BME280;24553;51.640;-0.752;2023-07-29T08:20:59;99785.09;;;21.34;100.00
38812;BME280;24553;51.640;-0.752;2023-07-29T08:23:28;99779.16;;;21.32;100.00
38812;BME280;24553;51.640;-0.752;2023-07-29T08:25:54;99775.06;;;21.45;100.00
38812;BME280;24553;51.640;-0.752;2023-07-29T08:28:22;99769.34;;;21.56;100.00
38812;BME280;24553;51.640;-0.752;2023-07-29T08:30:47;99776.19;;;21.39;100.00
38812;BME280;24553;51.640;-0.752;2023-07-29T08:33:12;99776.91;;;21.05;100.00
38812;BME280;24553;51.640;-0.752;2023-07-29T08:35:37;99770.13;;;21.12;100.00
38812;BME280;24553;51.640;-0.752;2023-07-29T08:38:03;99773.44;;;21.49;100.00
38812;BME280;24553;51.640;-0.752;2023-07-29T08:40:30;99767.63;;;22.00;100.00
38812;BME280;24553;51.640;-0.752;2023-07-29T08:42:58;99754.91;;;22.59;100.00
38812;BME280;24553;51.640;-0.752;2023-07-29T08:45:24;99756.50;;;22.60;100.00
38812;BME280;24553;51.640;-0.752;2023-07-29T08:47:53;99763.72;;;22.40;100.00
38812;BME280;24553;51.640;-0.752;2023-07-29T08:50:21;99758.88;;;22.13;100.00
38812;BME280;24553;51.640;-0.752;2023-07-29T08:52:47;99761.22;;;21.91;100.00
38812;BME280;24553;51.640;-0.752;2023-07-29T08:55:14;99763.34;;;21.94;100.00
38812;BME280;24553;51.640;-0.752;2023-07-29T08:57:40;99764.78;;;22.15;100.00
38812;BME280;24553;51.640;-0.752;2023-07-29T09:00:06;99759.06;;;21.93;100.00
38812;BME280;24553;51.640;-0.752;2023-07-29T09:02:31;99766.66;;;22.20;100.00
38812;BME280;24553;51.640;-0.752;2023-07-29T09:04:57;99766.16;;;22.66;100.00
38812;BME280;24553;51.640;-0.752;2023-07-29T09:07:22;99765.22;;;22.76;100.00
38812;BME280;24553;51.640;-0.752;2023-07-29T09:09:47;99751.44;;;22.96;100.00
38812;BME280;24553;51.640;-0.752;2023-07-29T09:12:13;99754.69;;;23.17;100.00
38812;BME280;24553;51.640;-0.752;2023-07-29T09:14:38;99762.09;;;23.12;100.00
38812;BME280;24553;51.640;-0.752;2023-07-29T09:17:07;99753.41;;;23.66;100.00
38812;BME280;24553;51.640;-0.752;2023-07-29T09:19:33;99752.75;;;23.75;100.00
38812;BME280;24553;51.640;-0.752;2023-07-29T09:21:58;99752.06;;;23.50;100.00
38812;BME280;24553;51.640;-0.752;2023-07-29T09:24:24;99759.31;;;23.55;100.00
38812;BME280;24553;51.640;-0.752;2023-07-29T09:26:50;99752.41;;;23.81;100.00
38812;BME280;24553;51.640;-0.752;2023-07-29T09:29:22;99754.81;;;23.83;100.00
38812;BME280;24553;51.640;-0.752;2023-07-29T09:31:49;99753.53;;;23.94;100.00
38812;BME280;24553;51.640;-0.752;2023-07-29T09:34:15;99757.69;;;24.19;100.00
38812;BME280;24553;51.640;-0.752;2023-07-29T09:36:40;99745.78;;;23.87;100.00
38812;BME280;24553;51.640;-0.752;2023-07-29T09:39:11;99754.19;;;23.53;100.00
38812;BME280;24553;51.640;-0.752;2023-07-29T09:41:36;99764.78;;;23.30;100.00
38812;BME280;24553;51.640;-0.752;2023-07-29T09:44:03;99769.53;;;22.77;100.00
38812;BME280;24553;51.640;-0.752;2023-07-29T09:46:33;99767.31;;;22.60;100.00
38812;BME280;24553;51.640;-0.752;2023-07-29T09:49:00;99786.66;;;22.91;100.00
38812;BME280;24553;51.640;-0.752;2023-07-29T09:51:26;99787.19;;;22.45;100.00
38812;BME280;24553;51.640;-0.752;2023-07-29T09:53:51;99789.31;;;21.90;100.00
38812;BME280;24553;51.640;-0.752;2023-07-29T09:56:17;99795.16;;;22.02;100.00
38812;BME280;24553;51.640;-0.752;2023-07-29T09:58:47;99795.75;;;21.94;100.00
38812;BME280;24553;51.640;-0.752;2023-07-29T10:01:13;99786.44;;;22.39;100.00
38812;BME280;24553;51.640;-0.752;2023-07-29T10:03:39;99785.63;;;23.11;100.00
38812;BME280;24553;51.640;-0.752;2023-07-29T10:06:06;99796.34;;;23.54;100.00
38812;BME280;24553;51.640;-0.752;2023-07-29T10:08:32;99794.31;;;23.08;100.00
38812;BME280;24553;51.640;-0.752;2023-07-29T10:11:01;99788.47;;;23.01;100.00
38812;BME280;24553;51.640;-0.752;2023-07-29T10:13:27;99795.56;;;22.92;100.00
38812;BME280;24553;51.640;-0.752;2023-07-29T10:15:55;99791.44;;;22.99;100.00
38812;BME280;24553;51.640;-0.752;2023-07-29T10:18:22;99789.06;;;23.36;100.00
38812;BME280;24553;51.640;-0.752;2023-07-29T10:20:51;99791.88;;;23.82;100.00
38812;BME280;24553;51.640;-0.752;2023-07-29T10:23:18;99787.47;;;23.72;100.00
38812;BME280;24553;51.640;-0.752;2023-07-29T10:25:55;99781.34;;;23.62;100.00
38812;BME280;24553;51.640;-0.752;2023-07-29T10:28:25;99784.38;;;23.93;100.00
38812;BME280;24553;51.640;-0.752;2023-07-29T10:30:51;99774.69;;;24.06;100.00
38812;BME280;24553;51.640;-0.752;2023-07-29T10:33:16;99780.16;;;24.20;100.00
38812;BME280;24553;51.640;-0.752;2023-07-29T10:35:42;99784.72;;;24.52;100.00
38812;BME280;24553;51.640;-0.752;2023-07-29T10:38:08;99784.13;;;24.83;100.00
38812;BME280;24553;51.640;-0.752;2023-07-29T10:40:54;99789.72;;;25.00;100.00
38812;BME280;24553;51.640;-0.752;2023-07-29T10:43:36;99786.13;;;25.41;100.00
38812;BME280;24553;51.640;-0.752;2023-07-29T10:46:22;99796.06;;;25.68;100.00
38812;BME280;24553;51.640;-0.752;2023-07-29T10:51:30;99785.66;;;25.61;98.77
38812;BME280;24553;51.640;-0.752;2023-07-29T10:54:01;99782.06;;;25.75;100.00
38812;BME280;24553;51.640;-0.752;2023-07-29T10:56:28;99794.91;;;26.05;97.67
38812;BME280;24553;51.640;-0.752;2023-07-29T10:59:00;99788.19;;;25.80;92.88
38812;BME280;24553;51.640;-0.752;2023-07-29T11:01:30;99791.03;;;25.98;88.87
38812;BME280;24553;51.640;-0.752;2023-07-29T11:04:22;99781.88;;;26.16;92.97
38812;BME280;24553;51.640;-0.752;2023-07-29T11:14:57;99782.56;;;26.30;87.67
38812;BME280;24553;51.640;-0.752;2023-07-29T11:17:25;99783.81;;;25.93;86.36
38812;BME280;24553;51.640;-0.752;2023-07-29T11:19:51;99772.78;;;26.21;86.65
38812;BME280;24553;51.640;-0.752;2023-07-29T11:22:17;99772.41;;;26.05;86.33
38812;BME280;24553;51.640;-0.752;2023-07-29T11:24:43;99779.19;;;25.94;82.65
38812;BME280;24553;51.640;-0.752;2023-07-29T11:27:11;99794.97;;;25.92;83.92
38812;BME280;24553;51.640;-0.752;2023-07-29T11:29:37;99780.97;;;26.29;82.10
38812;BME280;24553;51.640;-0.752;2023-07-29T11:32:02;99791.00;;;26.51;82.51
38812;BME280;24553;51.640;-0.752;2023-07-29T11:34:32;99797.91;;;26.26;81.45
38812;BME280;24553;51.640;-0.752;2023-07-29T11:36:57;99792.81;;;25.57;82.48
38812;BME280;24553;51.640;-0.752;2023-07-29T11:39:22;99787.16;;;26.21;84.00
38812;BME280;24553;51.640;-0.752;2023-07-29T11:41:48;99778.56;;;26.28;82.04
38812;BME280;24553;51.640;-0.752;2023-07-29T11:44:17;99783.84;;;26.33;84.06
38812;BME280;24553;51.640;-0.752;2023-07-29T11:46:43;99791.06;;;26.38;86.58
38812;BME280;24553;51.640;-0.752;2023-07-29T11:49:08;99782.09;;;26.28;87.51
38812;BME280;24553;51.640;-0.752;2023-07-29T11:51:34;99780.47;;;26.27;89.21
38812;BME280;24553;51.640;-0.752;2023-07-29T11:54:00;99796.72;;;26.10;89.74
38812;BME280;24553;51.640;-0.752;2023-07-29T11:56:25;99795.72;;;25.61;87.48
38812;BME280;24553;51.640;-0.752;2023-07-29T11:58:51;99804.28;;;25.18;88.05
38812;BME280;24553;51.640;-0.752;2023-07-29T12:01:17;99801.69;;;24.85;88.31
38812;BME280;24553;51.640;-0.752;2023-07-29T12:03:42;99800.78;;;25.17;89.19
38812;BME280;24553;51.640;-0.752;2023-07-29T12:06:09;99801.00;;;25.43;86.66
38812;BME280;24553;51.640;-0.752;2023-07-29T12:08:34;99796.28;;;25.94;85.46
38812;BME280;24553;51.640;-0.752;2023-07-29T12:11:00;99786.66;;;26.10;83.94
38812;BME280;24553;51.640;-0.752;2023-07-29T12:13:25;99803.88;;;25.61;87.43
38812;BME280;24553;51.640;-0.752;2023-07-29T12:15:50;99804.28;;;25.54;88.27
38812;BME280;24553;51.640;-0.752;2023-07-29T12:18:16;99812.94;;;25.42;88.10
38812;BME280;24553;51.640;-0.752;2023-07-29T12:20:41;99801.00;;;25.43;85.88
38812;BME280;24553;51.640;-0.752;2023-07-29T12:23:07;99797.00;;;25.41;86.29
38812;BME280;24553;51.640;-0.752;2023-07-29T12:25:34;99794.47;;;25.67;86.51
38812;BME280;24553;51.640;-0.752;2023-07-29T12:28:06;99798.19;;;25.94;85.95
38812;BME280;24553;51.640;-0.752;2023-07-29T12:30:32;99798.31;;;25.88;81.38
38812;BME280;24553;51.640;-0.752;2023-07-29T12:32:57;99790.66;;;25.68;80.45
38812;BME280;24553;51.640;-0.752;2023-07-29T12:35:23;99779.28;;;26.11;79.75
38812;BME280;24553;51.640;-0.752;2023-07-29T12:37:58;99788.53;;;26.81;77.29
38812;BME280;24553;51.640;-0.752;2023-07-29T12:40:25;99789.34;;;26.42;74.86
38812;BME280;24553;51.640;-0.752;2023-07-29T12:42:51;99799.69;;;25.63;72.46
38812;BME280;24553;51.640;-0.752;2023-07-29T12:45:16;99793.31;;;26.04;73.08
38812;BME280;24553;51.640;-0.752;2023-07-29T12:47:43;99800.34;;;26.37;74.26
38812;BME280;24553;51.640;-0.752;2023-07-29T12:50:08;99794.19;;;26.22;74.70
38812;BME280;24553;51.640;-0.752;2023-07-29T12:52:34;99807.84;;;26.62;76.71
38812;BME280;24553;51.640;-0.752;2023-07-29T12:54:59;99802.50;;;26.97;74.21